Погода Брагинна неделю

Гомельская область, Белоруссия

23 - 29 июля
  • 23июля
    Сегодня
    +13°
    +25°
    Ясно и безоблачно
    ВремяПогодаТемператураВлажностьДавлениеВетер, м/сВероятность осадков
    00:00Ясно и безоблачно+15°C90 %748 мм0.0 м/с2 %
    03:00Ясно и безоблачно+14°C95 %748 мм0.2 м/с2 %
    06:00Ясно и безоблачно+14°C94 %748 мм0.2 м/с2 %
    09:00Ясно и безоблачно+21°C79 %749 мм1.3 м/с2 %
    12:00Ясно и безоблачно+24°C63 %749 мм1.9 м/с10 %
    15:00Ясно и безоблачно+25°C56 %748 мм2.4 м/с21 %
    18:00Ясно и безоблачно+25°C49 %748 мм2.2 м/с11 %
    21:00Ясно и безоблачно+20°C66 %749 мм0.5 м/с2 %
  • 24июля
    Среда
    +13°
    +25°
    Практически безоблачно
    ВремяПогодаТемператураВлажностьДавлениеВетер, м/сВероятность осадков
    00:00Ясно и безоблачно+16°C79 %748 мм0.2 м/с2 %
    03:00Ясно и безоблачно+14°C88 %748 мм0.3 м/с2 %
    06:00Ясно и безоблачно+14°C91 %748 мм0.1 м/с2 %
    09:00Ясно и безоблачно+21°C74 %748 мм1.4 м/с2 %
    12:00Практически безоблачно+24°C63 %748 мм1.8 м/с23 %
    15:00Практически безоблачно+24°C51 %747 мм2.1 м/с25 %
    18:00Практически безоблачно+24°C43 %747 мм2.2 м/с13 %
    21:00Ясно и безоблачно+19°C57 %747 мм0.6 м/с2 %
  • 25июля
    Четверг
    +14°
    +25°
    Небольшая облачность
    ВремяПогодаТемператураВлажностьДавлениеВетер, м/сВероятность осадков
    00:00Ясно и безоблачно+16°C58 %747 мм0.7 м/с2 %
    03:00Ясно и безоблачно+15°C61 %746 мм0.7 м/с2 %
    06:00Небольшая облачность+14°C71 %746 мм0.4 м/с2 %
    09:00Облачно с прояснениями+20°C60 %746 мм1.5 м/с2 %
    12:00Небольшая облачность+25°C41 %746 мм1.9 м/с2 %
    15:00Небольшая облачность+25°C36 %746 мм1.6 м/с2 %
    18:00Облачно с прояснениями+24°C34 %745 мм1.9 м/с2 %
    21:00Практически безоблачно+19°C53 %745 мм0.3 м/с2 %
  • 26июля
    Пятница
    +15°
    +26°
    Пасмурно, сплошная облачность
    ВремяПогодаТемператураВлажностьДавлениеВетер, м/сВероятность осадков
    00:00Облачно с прояснениями+16°C54 %746 мм0.2 м/с2 %
    03:00Ясно и безоблачно+14°C74 %746 мм0.2 м/с2 %
    06:00Облачно с прояснениями+15°C73 %746 мм0.3 м/с2 %
    09:00Облачно с прояснениями+21°C59 %747 мм1.1 м/с2 %
    12:00Облачно с прояснениями+26°C39 %748 мм1.5 м/с5 %
    15:00Пасмурно, сплошная облачность+27°C34 %748 мм1.3 м/с13 %
    18:00Облачно с прояснениями+26°C38 %748 мм1.6 м/с26 %
    21:00Облачно с прояснениями+20°C56 %749 мм0.3 м/с11 %
  • 27июля
    Суббота
    +16°
    +26°
    Ясно и безоблачно
    ВремяПогодаТемператураВлажностьДавлениеВетер, м/сВероятность осадков
    00:00Облачно с прояснениями+17°C68 %750 мм0.0 м/с3 %
    03:00Практически безоблачно+16°C83 %751 мм0.1 м/с6 %
    06:00Ясно и безоблачно+16°C90 %751 мм0.1 м/с8 %
    09:00Ясно и безоблачно+22°C67 %752 мм0.6 м/с3 %
    12:00Практически безоблачно+26°C44 %753 мм1.0 м/с7 %
    15:00Ясно и безоблачно+26°C41 %753 мм0.8 м/с18 %
    18:00Облачно с прояснениями+26°C40 %752 мм1.5 м/с28 %
    21:00Ясно и безоблачно+21°C50 %753 мм0.1 м/с9 %
Мы используем cookies
Соглашаюсь